createdAt,value
2019-05-07T00:02:16.092Z,98449.82
2019-05-07T00:04:46.457Z,98449.72
2019-05-07T00:07:16.715Z,98449.01
2019-05-07T00:37:07.299Z,98432.15
2019-05-07T00:40:15.508Z,98430.11
2019-05-07T00:43:09.211Z,98422.12
2019-05-07T00:46:22.595Z,98419.62
2019-05-07T00:49:02.261Z,98417.14
2019-05-07T00:51:52.248Z,98420.42
2019-05-07T00:54:42.320Z,98413.23
2019-05-07T00:57:34.186Z,98407.37
2019-05-07T01:00:06.954Z,98286.59
2019-05-07T01:03:02.911Z,98405.44
2019-05-07T01:05:52.753Z,98409.05
2019-05-07T01:09:03.175Z,98412.47
2019-05-07T01:11:35.240Z,98411.12
2019-05-07T01:14:26.007Z,98407.52
2019-05-07T01:16:56.238Z,98410.66
2019-05-07T01:19:45.814Z,98406.06
2019-05-07T01:22:35.082Z,98410.77
2019-05-07T01:25:05.865Z,98407.42
2019-05-07T01:27:40.089Z,98402.85
2019-05-07T01:30:29.407Z,98407.35
2019-05-07T01:36:02.316Z,98401.89
2019-05-07T01:38:52.234Z,98404.80
2019-05-07T01:41:42.075Z,98402.34
2019-05-07T01:44:32.537Z,98396.57
2019-05-07T01:47:03.741Z,98385.63
2019-05-07T01:49:35.094Z,98386.78
2019-05-07T01:54:55.409Z,98388.86
2019-05-07T01:57:25.768Z,98387.19
2019-05-07T01:59:56.538Z,98391.64
2019-05-07T02:02:38.395Z,98389.85
2019-05-07T02:05:27.775Z,98389.67
2019-05-07T02:11:12.882Z,98396.23
2019-05-07T02:14:02.452Z,98390.58
2019-05-07T02:16:52.900Z,98394.56
2019-05-07T02:19:43.050Z,98394.27
2019-05-07T02:22:32.491Z,98390.17
2019-05-07T02:25:22.263Z,98391.52
2019-05-07T02:28:12.844Z,98231.16
2019-05-07T02:31:04.137Z,98386.95
2019-05-07T02:33:35.133Z,98383.54
2019-05-07T02:39:33.264Z,98378.42
2019-05-07T02:42:04.060Z,98372.15
2019-05-07T02:45:13.324Z,98380.09
2019-05-07T02:47:44.015Z,98372.16
2019-05-07T02:53:43.118Z,98370.91
2019-05-07T02:56:33.451Z,98369.41
2019-05-07T02:59:44.026Z,98370.87
2019-05-07T03:02:25.669Z,98372.97
2019-05-07T03:05:06.915Z,98378.22
2019-05-07T03:07:53.223Z,98385.59
2019-05-07T03:10:34.619Z,98382.77
2019-05-07T03:13:17.106Z,98377.69
2019-05-07T03:15:58.512Z,98382.44
2019-05-07T03:18:43.539Z,98383.30
2019-05-07T03:21:23.915Z,98380.98
2019-05-07T03:24:14.831Z,98382.36
2019-05-07T03:26:46.452Z,98383.00
2019-05-07T03:29:37.382Z,98378.21
2019-05-07T03:32:27.806Z,98377.63
2019-05-07T03:35:38.102Z,98381.42
2019-05-07T03:38:27.519Z,98384.33
2019-05-07T03:41:18.753Z,98329.23
2019-05-07T03:43:53.437Z,98383.39
2019-05-07T03:46:23.799Z,98377.78
2019-05-07T03:48:54.354Z,98375.55
2019-05-07T03:51:24.631Z,98379.02
2019-05-07T03:53:54.886Z,98381.57
2019-05-07T03:56:25.521Z,98383.98
2019-05-07T03:59:14.945Z,98380.10
2019-05-07T04:01:45.281Z,98391.50
2019-05-07T04:04:16.473Z,98390.70
2019-05-07T04:06:49.039Z,98390.38
2019-05-07T04:09:38.328Z,98392.80
2019-05-07T04:12:08.804Z,98384.59
2019-05-07T04:14:58.108Z,98384.41
2019-05-07T04:17:47.402Z,98389.08
2019-05-07T04:20:18.209Z,98393.28
2019-05-07T04:23:07.487Z,98390.54
2019-05-07T04:28:54.128Z,98392.41
2019-05-07T04:31:37.000Z,98401.03
2019-05-07T04:34:45.568Z,98395.78
2019-05-07T04:37:34.765Z,98395.13
2019-05-07T04:40:05.143Z,98399.17
2019-05-07T04:42:54.401Z,98394.94
2019-05-07T04:45:24.651Z,98395.38
2019-05-07T04:48:14.475Z,98394.47
2019-05-07T04:54:03.291Z,98391.44
2019-05-07T04:56:53.147Z,98392.53
2019-05-07T04:59:43.103Z,98396.92
2019-05-07T05:05:12.691Z,98393.28
2019-05-07T05:07:43.179Z,98392.49
2019-05-07T05:10:22.693Z,98392.39
2019-05-07T05:13:12.934Z,98389.46
2019-05-07T05:16:03.757Z,98389.27
2019-05-07T05:18:53.486Z,98388.62
2019-05-07T05:21:42.689Z,98394.94
2019-05-07T05:24:37.645Z,98390.75
2019-05-07T05:27:30.037Z,98387.44
2019-05-07T05:29:59.676Z,98388.42
2019-05-07T05:32:32.438Z,98388.78
2019-05-07T05:35:08.568Z,98391.94
2019-05-07T05:38:22.273Z,98387.55
2019-05-07T05:41:16.698Z,98400.08
2019-05-07T05:47:16.404Z,98393.09
2019-05-07T05:56:22.887Z,98397.87
2019-05-07T05:59:47.434Z,98400.44
2019-05-07T06:02:44.026Z,98406.69
2019-05-07T06:05:34.428Z,98399.64
2019-05-07T06:08:24.094Z,98400.27
2019-05-07T06:11:33.636Z,98399.30
2019-05-07T06:14:23.058Z,98401.91
2019-05-07T06:17:13.545Z,98409.02
2019-05-07T06:20:12.144Z,98406.36
2019-05-07T06:23:02.977Z,98405.85
2019-05-07T06:25:33.571Z,98395.98
2019-05-07T06:28:10.037Z,98399.47
2019-05-07T06:30:59.346Z,98395.58
2019-05-07T06:33:52.316Z,98397.28
2019-05-07T06:36:22.965Z,98402.13
2019-05-07T06:45:24.570Z,98402.58
2019-05-07T06:51:25.289Z,98406.48
2019-05-07T06:54:19.586Z,98410.95
2019-05-07T06:56:51.910Z,98399.14
2019-05-07T07:02:29.001Z,98404.52
2019-05-07T07:05:18.133Z,98405.18
2019-05-07T07:07:58.552Z,98404.37
2019-05-07T07:11:09.811Z,98406.23
2019-05-07T07:13:42.665Z,98404.56
2019-05-07T07:16:23.494Z,98407.66
2019-05-07T07:18:55.801Z,98405.63
2019-05-07T07:21:25.903Z,98403.08
2019-05-07T07:23:56.491Z,98403.36
2019-05-07T07:32:13.175Z,98401.01
2019-05-07T07:37:58.954Z,98389.58
2019-05-07T07:40:52.776Z,98380.54
2019-05-07T07:43:42.471Z,98382.18
2019-05-07T07:46:16.675Z,98379.62
2019-05-07T07:49:11.279Z,98377.05
2019-05-07T07:51:57.586Z,98377.42
2019-05-07T07:54:47.866Z,98375.16
2019-05-07T07:57:37.011Z,98374.78
2019-05-07T08:00:29.961Z,98377.14
2019-05-07T08:05:39.440Z,98374.15
2019-05-07T08:08:28.723Z,98380.88
2019-05-07T08:11:39.787Z,98375.97
2019-05-07T08:14:29.082Z,98375.17
2019-05-07T08:17:02.252Z,98378.58
2019-05-07T08:19:32.933Z,98377.88
2019-05-07T08:22:28.803Z,98374.42
2019-05-07T08:25:18.303Z,98367.45
2019-05-07T08:28:23.181Z,98244.66
2019-05-07T08:31:19.983Z,98367.19
2019-05-07T08:33:59.268Z,98372.86
2019-05-07T08:36:29.490Z,98371.06
2019-05-07T08:38:59.884Z,98363.61
2019-05-07T08:41:49.213Z,98361.52
2019-05-07T08:44:57.407Z,98356.95
2019-05-07T08:47:49.906Z,98363.70
2019-05-07T08:50:48.820Z,98357.89
2019-05-07T08:53:23.805Z,98352.96
2019-05-07T08:55:54.329Z,98347.09
2019-05-07T08:58:43.767Z,98345.09
2019-05-07T09:01:33.292Z,98337.39
2019-05-07T09:04:14.968Z,98343.98
2019-05-07T09:06:59.463Z,98340.69
2019-05-07T09:09:39.648Z,98340.03
2019-05-07T09:15:59.107Z,98333.08
2019-05-07T09:18:52.401Z,98336.52
2019-05-07T09:21:42.910Z,98332.08
2019-05-07T09:24:13.255Z,98330.52
2019-05-07T09:27:02.906Z,98327.03
2019-05-07T09:30:12.834Z,98322.59
2019-05-07T09:35:52.952Z,98311.36
2019-05-07T09:38:23.314Z,98313.02
2019-05-07T09:40:56.870Z,98314.81
2019-05-07T09:43:48.489Z,98308.87
2019-05-07T09:46:16.965Z,98298.61
2019-05-07T09:49:06.357Z,98293.45
2019-05-07T09:51:55.587Z,98297.36
2019-05-07T09:54:26.480Z,98298.10
2019-05-07T09:57:27.325Z,98300.34
2019-05-07T09:59:48.054Z,98295.69
2019-05-07T10:02:18.313Z,98300.03
2019-05-07T10:04:52.713Z,98295.91
2019-05-07T10:07:23.995Z,98300.22
2019-05-07T10:10:13.821Z,98299.20
2019-05-07T10:13:42.005Z,98297.76
2019-05-07T10:16:41.839Z,98269.70
2019-05-07T10:22:08.674Z,98282.08
2019-05-07T10:25:02.938Z,98148.19
2019-05-07T10:28:12.523Z,98272.77
2019-05-07T10:34:04.450Z,98271.77
2019-05-07T10:36:46.091Z,98266.64
2019-05-07T10:39:35.097Z,98265.98
2019-05-07T10:42:28.816Z,98262.34
2019-05-07T10:45:33.391Z,98264.41
2019-05-07T10:48:32.047Z,98273.58
2019-05-07T10:51:21.792Z,98265.76
2019-05-07T10:57:19.858Z,98255.69
2019-05-07T11:02:54.544Z,98241.23
2019-05-07T11:05:36.098Z,98243.62
2019-05-07T11:08:18.288Z,98240.62
2019-05-07T11:11:00.314Z,98230.64
2019-05-07T11:13:42.366Z,98228.73
2019-05-07T11:16:26.006Z,98220.89
2019-05-07T11:19:12.773Z,98224.33
2019-05-07T11:21:54.956Z,98220.45
2019-05-07T11:24:36.241Z,98222.43
2019-05-07T11:27:16.393Z,98215.56
2019-05-07T11:30:07.374Z,98210.49
2019-05-07T11:32:39.768Z,98207.58
2019-05-07T11:35:31.929Z,98208.11
2019-05-07T11:38:24.982Z,98193.10
2019-05-07T11:40:57.252Z,98189.12
2019-05-07T11:44:05.445Z,98188.45
2019-05-07T11:47:13.948Z,98179.17
2019-05-07T11:50:25.524Z,98132.59
2019-05-07T11:56:28.394Z,98171.37
2019-05-07T11:59:22.018Z,98173.34
2019-05-07T12:02:12.113Z,98175.43
2019-05-07T12:05:22.561Z,98157.53
2019-05-07T12:08:14.329Z,98148.41
2019-05-07T12:11:03.577Z,98144.16
2019-05-07T12:13:57.029Z,98020.85
2019-05-07T12:16:43.911Z,98138.91
2019-05-07T12:19:36.052Z,98133.17
2019-05-07T12:25:19.500Z,98140.42
2019-05-07T12:28:08.940Z,98136.08
2019-05-07T12:30:58.510Z,98133.09
2019-05-07T12:34:11.924Z,98132.61
2019-05-07T12:37:01.678Z,98126.01
2019-05-07T12:39:32.468Z,98128.00
2019-05-07T12:42:08.549Z,98121.43
2019-05-07T12:45:02.845Z,98120.53
2019-05-07T12:47:53.012Z,98123.09
2019-05-07T12:50:43.639Z,98120.45
2019-05-07T12:53:52.464Z,98117.22
2019-05-07T12:57:02.533Z,98111.25
2019-05-07T12:59:54.049Z,98119.50
2019-05-07T13:05:59.527Z,98105.08
2019-05-07T13:08:43.242Z,98108.81
2019-05-07T13:11:13.853Z,98107.07
2019-05-07T13:13:44.161Z,98102.10
2019-05-07T13:16:36.381Z,98097.41
2019-05-07T13:23:17.491Z,98105.33
2019-05-07T13:25:28.173Z,98103.36
2019-05-07T13:28:18.162Z,98107.72
2019-05-07T13:30:52.639Z,98108.88
2019-05-07T13:33:23.879Z,98106.88
2019-05-07T13:36:13.191Z,98103.91
2019-05-07T13:39:05.108Z,98109.30
2019-05-07T13:42:13.609Z,98108.48
2019-05-07T13:45:22.454Z,98106.91
2019-05-07T13:48:14.192Z,98098.81
2019-05-07T13:50:48.673Z,98092.84
2019-05-07T13:53:56.865Z,98081.34
2019-05-07T13:56:48.890Z,98075.00
2019-05-07T13:59:19.173Z,98072.19
2019-05-07T14:02:25.823Z,98062.60
2019-05-07T14:04:56.989Z,98055.73
2019-05-07T14:07:43.054Z,98049.59
2019-05-07T14:10:03.931Z,98044.58
2019-05-07T14:12:37.089Z,98036.25
2019-05-07T14:15:28.089Z,98041.41
2019-05-07T14:18:18.937Z,98039.37
2019-05-07T14:21:26.987Z,98038.97
2019-05-07T14:23:57.270Z,98041.41
2019-05-07T14:29:57.283Z,98030.45
2019-05-07T14:32:46.494Z,98018.61
2019-05-07T14:35:39.100Z,98033.73
2019-05-07T14:38:52.093Z,98022.35
2019-05-07T14:42:04.469Z,98029.45
2019-05-07T14:45:05.886Z,98028.80
2019-05-07T14:47:45.287Z,98029.25
2019-05-07T14:53:24.853Z,98009.91
2019-05-07T14:56:14.939Z,98006.91
2019-05-07T15:02:03.639Z,98000.31
2019-05-07T15:04:53.096Z,97994.13
2019-05-07T15:07:23.887Z,97997.20
2019-05-07T15:10:13.296Z,98001.28
2019-05-07T15:13:07.800Z,97994.17
2019-05-07T15:15:57.226Z,97993.25
2019-05-07T15:19:05.447Z,97993.06
2019-05-07T15:22:13.658Z,97986.19
2019-05-07T15:25:02.888Z,97985.49
2019-05-07T15:27:34.134Z,97998.77
2019-05-07T15:33:44.880Z,97977.92
2019-05-07T15:36:34.999Z,97977.28
2019-05-07T15:39:24.396Z,97977.86
2019-05-07T15:42:13.701Z,97913.27
2019-05-07T15:45:04.762Z,97974.52
2019-05-07T15:47:56.180Z,97970.53
2019-05-07T15:53:55.007Z,97960.78
2019-05-07T15:56:47.443Z,97955.52
2019-05-07T15:59:36.815Z,97952.05
2019-05-07T16:02:35.923Z,97954.05
2019-05-07T16:07:57.282Z,97942.94
2019-05-07T16:10:38.968Z,97941.69
2019-05-07T16:13:39.112Z,97943.78
2019-05-07T16:16:02.111Z,97933.25
2019-05-07T16:19:12.635Z,97928.02
2019-05-07T16:21:43.873Z,97927.17
2019-05-07T16:24:33.477Z,97927.41
2019-05-07T16:27:25.746Z,97922.96
2019-05-07T16:36:15.774Z,97913.44
2019-05-07T16:39:06.049Z,97913.44
2019-05-07T16:41:57.098Z,97909.70
2019-05-07T16:44:47.079Z,97902.75
2019-05-07T16:47:39.534Z,97902.11
2019-05-07T16:50:28.822Z,97901.11
2019-05-07T16:53:37.143Z,97894.95
2019-05-07T16:56:26.796Z,97890.55
2019-05-07T17:05:15.292Z,97878.05
2019-05-07T17:11:05.853Z,97869.49
2019-05-07T17:13:55.414Z,97864.00
2019-05-07T17:16:26.145Z,97862.27
2019-05-07T17:19:17.967Z,97861.63
2019-05-07T17:21:48.676Z,97863.48
2019-05-07T17:24:19.051Z,97863.64
2019-05-07T17:26:51.839Z,97864.38
2019-05-07T17:29:49.140Z,97853.08
2019-05-07T17:32:41.914Z,97846.80
2019-05-07T17:38:09.889Z,97846.79
2019-05-07T17:40:39.176Z,97852.64
2019-05-07T17:43:12.320Z,97844.04
2019-05-07T17:45:43.124Z,97844.99
2019-05-07T17:52:15.734Z,97845.22
2019-05-07T17:54:50.282Z,97849.97
2019-05-07T17:57:44.821Z,97848.67
2019-05-07T18:00:35.637Z,97847.97
2019-05-07T18:03:35.602Z,97842.99
2019-05-07T18:06:34.782Z,97845.97
2019-05-07T18:09:24.114Z,97847.55
2019-05-07T18:11:56.547Z,97840.16
2019-05-07T18:14:49.858Z,97842.56
2019-05-07T18:17:42.069Z,97842.34
2019-05-07T18:20:32.812Z,97835.30
2019-05-07T18:23:16.677Z,97829.73
2019-05-07T18:25:44.461Z,97832.14
2019-05-07T18:28:17.916Z,97829.52
2019-05-07T18:30:54.735Z,97828.67
2019-05-07T18:33:41.752Z,97832.48
2019-05-07T18:36:12.599Z,97825.80
2019-05-07T18:38:44.618Z,97826.03
2019-05-07T18:41:17.703Z,97820.39
2019-05-07T18:43:52.071Z,97821.78
2019-05-07T18:46:24.197Z,97824.41
2019-05-07T18:48:55.625Z,97820.83
2019-05-07T18:51:32.194Z,97824.03
2019-05-07T18:54:02.730Z,97825.16
2019-05-07T18:56:52.876Z,97832.72
2019-05-07T18:59:43.451Z,97833.14
2019-05-07T19:02:16.991Z,97835.15
2019-05-07T19:04:47.601Z,97838.42
2019-05-07T19:07:22.817Z,97835.52
2019-05-07T19:10:35.140Z,97839.88
2019-05-07T19:13:33.749Z,97841.99
2019-05-07T19:16:27.631Z,97842.03
2019-05-07T19:19:16.766Z,97843.77
2019-05-07T19:22:06.228Z,97844.92
2019-05-07T19:28:12.759Z,97843.02
2019-05-07T19:30:43.940Z,97842.13
2019-05-07T19:33:33.191Z,97835.65
2019-05-07T19:36:22.517Z,97834.58
2019-05-07T19:39:12.635Z,97837.46
2019-05-07T19:42:06.292Z,97834.48
2019-05-07T19:48:00.091Z,97831.52
2019-05-07T19:51:08.412Z,97832.12
2019-05-07T19:53:43.823Z,97829.76
2019-05-07T19:56:33.462Z,97828.86
2019-05-07T19:59:09.266Z,97824.79
2019-05-07T20:01:44.750Z,97823.14
2019-05-07T20:04:15.142Z,97824.27
2019-05-07T20:07:07.930Z,97819.43
2019-05-07T20:09:49.512Z,97816.62
2019-05-07T20:12:33.597Z,97808.78
2019-05-07T20:15:06.838Z,97807.69
2019-05-07T20:17:42.164Z,97806.48
2019-05-07T20:20:36.696Z,97811.18
2019-05-07T20:26:36.045Z,97811.60
2019-05-07T20:29:27.233Z,97809.83
2019-05-07T20:32:04.247Z,97801.07
2019-05-07T20:34:53.622Z,97802.41
2019-05-07T20:38:16.240Z,97798.67
2019-05-07T20:40:55.784Z,97793.27
2019-05-07T20:43:28.180Z,97799.05
2019-05-07T20:46:20.577Z,97791.40
2019-05-07T20:48:52.609Z,97789.73
2019-05-07T20:51:52.777Z,97781.92
2019-05-07T20:54:46.049Z,97775.65
2019-05-07T20:57:39.256Z,97773.26
2019-05-07T21:00:29.782Z,97779.86
2019-05-07T21:05:55.049Z,97766.06
2019-05-07T21:08:25.936Z,97766.05
2019-05-07T21:11:17.936Z,97760.52
2019-05-07T21:13:52.333Z,97767.42
2019-05-07T21:16:42.538Z,97769.75
2019-05-07T21:19:33.088Z,97775.98
2019-05-07T21:22:23.346Z,97764.34
2019-05-07T21:25:41.495Z,97769.17
2019-05-07T21:27:52.886Z,97762.83
2019-05-07T21:30:42.689Z,97754.94
2019-05-07T21:36:05.122Z,97727.72
2019-05-07T21:39:02.160Z,97729.84
2019-05-07T21:41:55.121Z,97718.48
2019-05-07T21:44:44.971Z,97713.45
2019-05-07T21:50:56.525Z,97719.22
2019-05-07T21:59:43.200Z,97722.01
2019-05-07T22:02:17.832Z,97711.77
2019-05-07T22:05:11.781Z,97712.83
2019-05-07T22:08:01.823Z,97708.36
2019-05-07T22:10:51.500Z,97710.39
2019-05-07T22:13:43.479Z,97710.78
2019-05-07T22:16:37.163Z,97712.89
2019-05-07T22:19:26.719Z,97702.55
2019-05-07T22:22:38.479Z,97701.91
2019-05-07T22:25:46.704Z,97698.11
2019-05-07T22:28:17.193Z,97688.61
2019-05-07T22:34:02.200Z,97682.17
2019-05-07T22:36:52.117Z,97682.91
2019-05-07T22:39:43.816Z,97669.95
2019-05-07T22:42:53.671Z,97662.61
2019-05-07T22:45:42.994Z,97662.64
2019-05-07T22:48:32.587Z,97655.39
2019-05-07T22:52:02.188Z,97532.47
2019-05-07T22:54:32.185Z,97651.77
2019-05-07T22:57:42.044Z,97652.61
2019-05-07T23:00:51.223Z,97644.42
2019-05-07T23:03:23.186Z,97642.20
2019-05-07T23:06:13.634Z,97645.65
2019-05-07T23:08:45.054Z,97640.64
2019-05-07T23:11:37.124Z,97645.11
2019-05-07T23:14:13.988Z,97639.27
2019-05-07T23:17:22.052Z,97636.84
2019-05-07T23:26:00.391Z,97626.70
2019-05-07T23:28:32.325Z,97624.35
2019-05-07T23:31:22.900Z,97625.38
2019-05-07T23:34:32.724Z,97623.33
2019-05-07T23:41:14.777Z,97615.41
2019-05-07T23:44:04.291Z,97616.09
2019-05-07T23:50:23.960Z,97613.66
2019-05-07T23:58:48.254Z,97603.19
